Redruth, United Kingdom
Current Conditions -  °F | °C
As of 7:50 AM on Saturday 25 Oct 2014 (Local Time) from EGDR Reporting Station
Rain Showers Rain Showers  
Wind Chill: 54°   Ceiling: 3000
Heat Index: 54°   Visibility: 6mi
Dew Point: 46°   Wind: 7mph
Humidity: 77%   Direction: 260°W
Pressure: 30.06"   Gusts: NA
Location:  50.23°N, 5.23°W
Report Text: EGDR 250650Z 26006KT 9999 VCSH FEW020 BKN030 12/08 Q1018 BLU
Loading
Personal Weather Stations






























Interactive Weather Map
Tropical Storm Tracking
New forecast layout! Learn more

10-Day Weather Forecast

Advertisements
Track Severe Weather on mobile